Time;durP1;ratioP1;P1;durP2;ratioP2;P2;SDS_P1;SDS_P2;PMS_P1;PMS_P2;Temp;Humidity;BMP_temperature;BMP_pressure;BME280_temperature;BME280_humidity;BME280_pressure;Samples;Min_cycle;Max_cycle;Signal;HPM_P1;HPM_P2
2021/12/08 00:00:32;;;;;;;;;;;20.60;37.30;;;;;;5075576;28;19928;-53
2021/12/08 00:02:58;;;;;;;;;;;20.60;37.30;;;;;;5093174;28;20272;-59
2021/12/08 00:05:25;;;;;;;;;;;20.60;37.30;;;;;;5092330;28;19930;-55
2021/12/08 00:07:52;;;;;;;;;;;20.60;37.30;;;;;;5092222;28;20385;-53
2021/12/08 00:10:40;;;;;;;;;;;20.60;37.20;;;;;;5092403;28;20040;-59
2021/12/08 00:13:07;;;;;;;;;;;20.60;37.20;;;;;;5074965;28;19938;-55
2021/12/08 00:15:34;;;;;;;;;;;20.60;37.20;;;;;;5093502;28;20487;-58
2021/12/08 00:18:01;;;;;;;;;;;20.60;37.20;;;;;;5109156;28;19928;-58
2021/12/08 00:20:31;;;;;;;;;;;20.60;37.20;;;;;;5108796;28;19939;-57
2021/12/08 00:22:58;;;;;;;;;;;20.60;37.20;;;;;;5076246;28;19963;-55
2021/12/08 00:25:25;;;;;;;;;;;20.60;37.20;;;;;;5073573;28;20389;-51
2021/12/08 00:27:51;;;;;;;;;;;20.60;37.20;;;;;;5092231;28;19993;-53
2021/12/08 00:30:20;;;;;;;;;;;20.60;37.20;;;;;;5093191;28;20284;-53
2021/12/08 00:32:47;;;;;;;;;;;20.60;37.20;;;;;;5084121;28;20381;-55
2021/12/08 00:35:14;;;;;;;;;;;20.60;37.20;;;;;;5073828;28;19924;-52
2021/12/08 00:37:41;;;;;;;;;;;20.60;37.10;;;;;;5074761;28;19928;-58
2021/12/08 00:40:08;;;;;;;;;;;20.60;37.10;;;;;;5091426;28;19924;-56
2021/12/08 00:42:36;;;;;;;;;;;20.60;37.10;;;;;;5097225;28;19963;-53
2021/12/08 00:45:03;;;;;;;;;;;20.50;37.00;;;;;;5091814;28;20354;-52
2021/12/08 00:47:32;;;;;;;;;;;20.60;37.10;;;;;;5092480;28;20027;-55
2021/12/08 00:49:58;;;;;;;;;;;20.50;37.00;;;;;;5091175;28;19928;-55
2021/12/08 00:52:28;;;;;;;;;;;20.50;37.00;;;;;;5073981;28;20302;-54
2021/12/08 00:54:55;;;;;;;;;;;20.50;37.00;;;;;;5091640;28;19932;-55
2021/12/08 00:57:21;;;;;;;;;;;20.50;37.00;;;;;;5074602;28;20018;-58
2021/12/08 00:59:48;;;;;;;;;;;20.60;37.10;;;;;;5092867;28;19924;-56
2021/12/08 01:02:15;;;;;;;;;;;20.60;37.00;;;;;;5091081;28;20008;-51
2021/12/08 01:04:43;;;;;;;;;;;20.50;37.00;;;;;;5092731;28;19935;-56
2021/12/08 01:07:10;;;;;;;;;;;20.50;37.00;;;;;;5074155;28;19978;-59
2021/12/08 01:09:37;;;;;;;;;;;20.50;37.00;;;;;;5091611;28;20031;-55
2021/12/08 01:12:04;;;;;;;;;;;20.50;37.00;;;;;;5076948;28;19970;-55
2021/12/08 01:14:30;;;;;;;;;;;20.50;37.00;;;;;;5091300;28;19928;-55
2021/12/08 01:16:57;;;;;;;;;;;20.50;37.00;;;;;;5073665;28;20369;-53
2021/12/08 01:19:24;;;;;;;;;;;20.50;37.00;;;;;;5091160;28;20031;-55
2021/12/08 01:21:53;;;;;;;;;;;20.50;36.90;;;;;;5094539;28;20345;-55
2021/12/08 01:24:20;;;;;;;;;;;20.50;36.90;;;;;;5094530;28;20027;-55
2021/12/08 01:26:46;;;;;;;;;;;20.50;36.90;;;;;;5109930;28;19919;-52
2021/12/08 01:29:13;;;;;;;;;;;20.50;37.00;;;;;;5074304;28;19924;-53
2021/12/08 01:31:42;;;;;;;;;;;20.50;36.90;;;;;;5073932;28;19977;-53
2021/12/08 01:34:09;;;;;;;;;;;20.50;36.90;;;;;;5090676;28;20029;-55
2021/12/08 01:36:36;;;;;;;;;;;20.50;36.90;;;;;;5074226;28;20035;-56
2021/12/08 01:39:04;;;;;;;;;;;20.50;36.90;;;;;;5090380;28;19946;-57
2021/12/08 01:41:31;;;;;;;;;;;20.50;36.90;;;;;;5091463;28;19935;-55
2021/12/08 01:46:42;;;;;;;;;;;20.50;36.90;;;;;;5094518;28;19928;-56
2021/12/08 01:49:09;;;;;;;;;;;20.50;36.90;;;;;;5073537;28;19959;-58
2021/12/08 01:51:36;;;;;;;;;;;20.50;36.90;;;;;;5091737;28;19946;-57
2021/12/08 01:54:06;;;;;;;;;;;20.50;36.80;;;;;;5107093;28;19924;-55
2021/12/08 01:56:33;;;;;;;;;;;20.50;36.90;;;;;;5112213;28;19987;-54
2021/12/08 01:59:00;;;;;;;;;;;20.50;36.90;;;;;;5093209;28;20019;-56
2021/12/08 02:01:27;;;;;;;;;;;20.50;36.90;;;;;;5088446;28;20448;-56
2021/12/08 02:03:54;;;;;;;;;;;20.50;36.80;;;;;;5088035;28;19932;-56
2021/12/08 02:06:21;;;;;;;;;;;20.50;36.80;;;;;;5072680;28;19928;-53
2021/12/08 02:08:50;;;;;;;;;;;20.50;36.80;;;;;;5090004;28;19924;-58
2021/12/08 02:11:19;;;;;;;;;;;20.50;36.90;;;;;;5072831;28;19928;-53
2021/12/08 02:13:48;;;;;;;;;;;20.50;36.90;;;;;;5073737;28;19928;-54
2021/12/08 02:16:16;;;;;;;;;;;20.50;36.80;;;;;;5072734;28;20371;-58
2021/12/08 02:18:44;;;;;;;;;;;20.50;36.80;;;;;;5099347;28;20028;-57
2021/12/08 02:21:21;;;;;;;;;;;20.50;36.80;;;;;;5093398;28;19924;-61
2021/12/08 02:23:48;;;;;;;;;;;20.50;36.80;;;;;;5078163;28;20006;-53
2021/12/08 02:26:14;;;;;;;;;;;20.50;36.80;;;;;;5111870;28;19976;-58
2021/12/08 02:28:41;;;;;;;;;;;20.50;36.80;;;;;;5103977;28;20318;-55
2021/12/08 02:31:12;;;;;;;;;;;20.50;36.80;;;;;;5089912;28;19935;-59
2021/12/08 02:47:31;;;;;;;;;;;20.50;37.30;;;;;;5069495;28;19970;-58
2021/12/08 02:49:58;;;;;;;;;;;20.50;36.70;;;;;;5067630;28;20289;-57
2021/12/08 02:52:26;;;;;;;;;;;20.40;36.70;;;;;;5072908;28;19930;-60
2021/12/08 02:54:53;;;;;;;;;;;20.40;36.70;;;;;;5085988;28;20418;-57
2021/12/08 02:57:22;;;;;;;;;;;20.40;36.70;;;;;;5093654;28;19982;-56
2021/12/08 02:59:49;;;;;;;;;;;20.50;36.70;;;;;;5075923;28;20273;-56
2021/12/08 03:02:16;;;;;;;;;;;20.40;36.70;;;;;;5096458;28;19959;-52
2021/12/08 03:04:42;;;;;;;;;;;20.40;36.60;;;;;;5097238;28;19923;-56
2021/12/08 03:07:09;;;;;;;;;;;20.40;36.70;;;;;;5114586;28;20357;-55
2021/12/08 03:09:37;;;;;;;;;;;20.40;36.60;;;;;;5094742;28;19928;-52
2021/12/08 03:12:04;;;;;;;;;;;20.40;36.60;;;;;;5093494;28;20369;-56
2021/12/08 03:14:31;;;;;;;;;;;20.40;36.60;;;;;;5094697;28;20048;-56
2021/12/08 03:16:59;;;;;;;;;;;20.40;36.60;;;;;;5093676;28;20390;-55
2021/12/08 03:19:26;;;;;;;;;;;20.40;36.60;;;;;;5094153;28;19924;-59
2021/12/08 03:21:53;;;;;;;;;;;20.40;36.60;;;;;;5093786;28;19985;-54
2021/12/08 03:24:25;;;;;;;;;;;20.40;36.60;;;;;;5097497;28;20027;-51
2021/12/08 03:27:04;;;;;;;;;;;20.50;36.60;;;;;;5114065;28;19931;-58
2021/12/08 03:29:35;;;;;;;;;;;20.40;36.60;;;;;;5092242;28;20390;-54
2021/12/08 03:32:06;;;;;;;;;;;20.40;36.60;;;;;;5076523;28;19924;-55
2021/12/08 03:34:35;;;;;;;;;;;20.40;36.60;;;;;;5094217;28;20338;-50
2021/12/08 03:37:04;;;;;;;;;;;20.40;36.60;;;;;;5094336;28;19924;-57
2021/12/08 03:39:31;;;;;;;;;;;20.40;36.50;;;;;;5094860;28;19926;-55
2021/12/08 03:41:59;;;;;;;;;;;20.40;36.60;;;;;;5114543;28;19965;-56
2021/12/08 03:44:26;;;;;;;;;;;20.40;36.50;;;;;;5097463;28;19924;-53
2021/12/08 03:46:54;;;;;;;;;;;20.40;36.50;;;;;;5092762;28;19934;-57
2021/12/08 03:49:21;;;;;;;;;;;20.40;36.50;;;;;;5081644;28;20023;-53
2021/12/08 03:51:48;;;;;;;;;;;20.40;36.50;;;;;;5075972;28;20385;-55
2021/12/08 03:54:15;;;;;;;;;;;20.40;36.50;;;;;;5093967;28;19971;-53
2021/12/08 03:56:42;;;;;;;;;;;20.40;36.50;;;;;;5075881;28;19934;-53
2021/12/08 03:59:22;;;;;;;;;;;20.40;36.50;;;;;;5093401;28;19924;-52
2021/12/08 04:01:49;;;;;;;;;;;20.40;36.60;;;;;;5075860;28;19920;-53
2021/12/08 04:04:16;;;;;;;;;;;20.40;36.50;;;;;;5091870;28;20369;-54
2021/12/08 04:06:47;;;;;;;;;;;20.40;36.50;;;;;;5093764;28;19946;-52
2021/12/08 04:09:19;;;;;;;;;;;20.40;36.60;;;;;;5074311;28;19930;-58
2021/12/08 04:11:46;;;;;;;;;;;20.40;36.60;;;;;;5075540;28;20049;-53
2021/12/08 04:14:16;;;;;;;;;;;20.40;36.50;;;;;;5092302;28;19924;-54
2021/12/08 04:16:44;;;;;;;;;;;20.40;36.50;;;;;;5093602;28;19938;-53
2021/12/08 04:19:11;;;;;;;;;;;20.40;36.60;;;;;;5093083;28;20321;-62
2021/12/08 04:21:38;;;;;;;;;;;20.40;36.70;;;;;;5074808;28;19928;-56
2021/12/08 04:24:05;;;;;;;;;;;20.40;36.50;;;;;;5085119;28;19928;-54
2021/12/08 04:26:33;;;;;;;;;;;20.40;36.60;;;;;;5093488;28;20304;-53
2021/12/08 04:28:59;;;;;;;;;;;20.40;36.50;;;;;;5102790;28;19935;-53
2021/12/08 04:31:28;;;;;;;;;;;20.40;36.50;;;;;;5074964;28;19992;-51
2021/12/08 04:33:58;;;;;;;;;;;20.40;36.50;;;;;;5074585;28;19985;-55
2021/12/08 04:36:25;;;;;;;;;;;20.40;36.50;;;;;;5074595;28;19932;-55
2021/12/08 04:38:56;;;;;;;;;;;20.40;36.60;;;;;;5091817;28;20395;-56
2021/12/08 04:41:29;;;;;;;;;;;20.40;36.50;;;;;;5095577;28;20273;-55
2021/12/08 04:44:01;;;;;;;;;;;20.40;36.50;;;;;;5108927;28;19948;-51
2021/12/08 04:46:45;;;;;;;;;;;20.40;36.60;;;;;;5086672;28;20298;-56
2021/12/08 04:49:27;;;;;;;;;;;20.40;36.60;;;;;;5084679;28;20000;-56
2021/12/08 04:51:59;;;;;;;;;;;20.40;36.50;;;;;;5101325;28;19924;-58
2021/12/08 05:03:05;;;;;;;;;;;20.40;36.50;;;;;;5091300;28;19931;-52
2021/12/08 05:08:16;;;;;;;;;;;20.40;36.50;;;;;;5091561;28;19924;-55
2021/12/08 05:10:43;;;;;;;;;;;20.40;36.50;;;;;;5113233;28;19981;-57
2021/12/08 05:13:11;;;;;;;;;;;20.40;36.50;;;;;;5095731;28;19924;-57
2021/12/08 05:15:39;;;;;;;;;;;20.40;36.50;;;;;;5079291;28;19935;-56
2021/12/08 05:18:08;;;;;;;;;;;20.40;36.50;;;;;;5092337;28;20379;-53
2021/12/08 05:20:37;;;;;;;;;;;20.40;36.50;;;;;;5073686;28;20019;-53
2021/12/08 05:23:05;;;;;;;;;;;20.40;36.50;;;;;;5090708;28;19928;-61
2021/12/08 05:25:32;;;;;;;;;;;20.40;36.50;;;;;;5090933;28;19959;-52
2021/12/08 05:28:00;;;;;;;;;;;20.40;36.50;;;;;;5090837;28;19959;-51
2021/12/08 05:30:27;;;;;;;;;;;20.40;36.50;;;;;;5092250;28;19972;-56
2021/12/08 05:32:54;;;;;;;;;;;20.40;36.50;;;;;;5092203;28;19928;-50
2021/12/08 05:35:22;;;;;;;;;;;20.40;36.50;;;;;;5090483;28;20066;-50
2021/12/08 05:37:49;;;;;;;;;;;20.40;36.50;;;;;;5073996;28;20296;-57
2021/12/08 05:40:17;;;;;;;;;;;20.40;36.50;;;;;;5073932;28;19960;-54
2021/12/08 05:42:44;;;;;;;;;;;20.40;36.50;;;;;;5099452;28;19963;-51
2021/12/08 05:45:12;;;;;;;;;;;20.40;36.50;;;;;;5078590;28;20381;-54
2021/12/08 05:47:39;;;;;;;;;;;20.40;36.50;;;;;;5085450;28;19939;-59
2021/12/08 05:50:06;;;;;;;;;;;20.40;36.50;;;;;;5091869;28;20374;-53
2021/12/08 05:52:34;;;;;;;;;;;20.40;36.50;;;;;;5090821;28;19924;-50
2021/12/08 05:55:02;;;;;;;;;;;20.40;36.50;;;;;;5091817;28;19923;-57
2021/12/08 05:57:33;;;;;;;;;;;20.40;36.70;;;;;;5073546;28;19936;-55
2021/12/08 06:00:00;;;;;;;;;;;20.40;36.50;;;;;;5089931;28;20026;-56
2021/12/08 06:02:28;;;;;;;;;;;20.40;36.50;;;;;;5091203;28;19924;-54
2021/12/08 06:04:55;;;;;;;;;;;20.40;36.50;;;;;;5107761;28;19960;-55
2021/12/08 06:07:22;;;;;;;;;;;20.40;36.50;;;;;;5092247;28;20345;-57
2021/12/08 06:09:50;;;;;;;;;;;20.40;36.50;;;;;;5057091;28;20102;-55
2021/12/08 06:12:17;;;;;;;;;;;20.40;36.50;;;;;;5073378;28;20757;-56
2021/12/08 06:14:44;;;;;;;;;;;20.40;36.50;;;;;;5090170;28;19924;-58
2021/12/08 06:17:12;;;;;;;;;;;20.40;36.50;;;;;;5090796;28;19977;-55
2021/12/08 06:19:40;;;;;;;;;;;20.40;36.50;;;;;;5073571;28;20391;-55
2021/12/08 06:22:07;;;;;;;;;;;20.40;36.50;;;;;;5073543;28;19930;-55
2021/12/08 06:24:34;;;;;;;;;;;20.40;36.50;;;;;;5070117;28;19991;-59
2021/12/08 06:27:03;;;;;;;;;;;20.40;36.50;;;;;;5091202;28;19924;-58
2021/12/08 06:29:30;;;;;;;;;;;20.40;36.50;;;;;;5073200;28;19927;-57
2021/12/08 06:31:57;;;;;;;;;;;20.40;36.50;;;;;;5090477;28;20360;-54
2021/12/08 06:34:24;;;;;;;;;;;20.40;36.50;;;;;;5090860;28;19946;-52
2021/12/08 06:36:52;;;;;;;;;;;20.40;36.50;;;;;;5091273;28;19930;-57
2021/12/08 06:39:19;;;;;;;;;;;20.40;36.50;;;;;;5090465;28;19931;-59
2021/12/08 06:41:47;;;;;;;;;;;20.40;36.50;;;;;;5088504;28;19977;-52
2021/12/08 06:44:16;;;;;;;;;;;20.40;36.50;;;;;;5095437;28;20410;-54
2021/12/08 06:46:42;;;;;;;;;;;20.40;36.50;;;;;;5090772;28;19985;-55
2021/12/08 06:49:09;;;;;;;;;;;20.40;36.50;;;;;;5090283;28;19928;-57
2021/12/08 06:51:37;;;;;;;;;;;20.40;36.50;;;;;;5073082;28;20448;-56
2021/12/08 06:54:06;;;;;;;;;;;20.40;36.60;;;;;;5091738;28;19924;-56
2021/12/08 06:56:34;;;;;;;;;;;20.40;36.60;;;;;;5086112;28;19940;-57
2021/12/08 06:59:16;;;;;;;;;;;20.40;36.60;;;;;;5072339;28;20364;-53
2021/12/08 07:01:49;;;;;;;;;;;20.40;36.60;;;;;;5070715;28;19924;-54
2021/12/08 07:04:29;;;;;;;;;;;20.40;36.60;;;;;;5087762;28;19924;-56
2021/12/08 07:07:00;;;;;;;;;;;20.40;36.60;;;;;;5089822;28;19983;-60
2021/12/08 07:09:28;;;;;;;;;;;20.40;36.60;;;;;;5089376;28;20027;-54
2021/12/08 07:11:55;;;;;;;;;;;20.40;36.60;;;;;;5073278;28;20288;-53
2021/12/08 07:14:22;;;;;;;;;;;20.40;36.60;;;;;;5073120;28;19928;-53
2021/12/08 07:16:51;;;;;;;;;;;20.40;36.60;;;;;;5090350;28;19924;-57
2021/12/08 07:19:26;;;;;;;;;;;20.40;36.60;;;;;;5095984;28;20395;-58
2021/12/08 07:21:53;;;;;;;;;;;20.40;36.60;;;;;;5076848;28;19931;-55
2021/12/08 07:24:21;;;;;;;;;;;20.40;36.70;;;;;;5091394;28;19927;-58
2021/12/08 07:26:49;;;;;;;;;;;20.40;36.60;;;;;;5089945;28;19974;-56
2021/12/08 07:29:17;;;;;;;;;;;20.40;36.60;;;;;;5087044;28;19924;-54
2021/12/08 07:31:46;;;;;;;;;;;20.40;36.60;;;;;;5090446;28;19936;-55
2021/12/08 07:34:18;;;;;;;;;;;20.40;36.70;;;;;;5072490;28;20023;-57
2021/12/08 07:36:46;;;;;;;;;;;20.40;36.70;;;;;;5089336;28;19928;-51
2021/12/08 07:39:18;;;;;;;;;;;20.40;36.70;;;;;;5090001;28;19930;-57
2021/12/08 07:41:48;;;;;;;;;;;20.40;36.70;;;;;;5088733;28;20023;-51
2021/12/08 07:44:15;;;;;;;;;;;20.40;36.60;;;;;;5092066;28;19935;-53
2021/12/08 07:46:43;;;;;;;;;;;20.40;36.70;;;;;;5093390;28;19985;-49
2021/12/08 07:49:10;;;;;;;;;;;20.40;36.70;;;;;;5093297;28;19971;-53
2021/12/08 07:51:40;;;;;;;;;;;20.40;36.60;;;;;;5094493;28;19924;-56
2021/12/08 07:54:06;;;;;;;;;;;20.40;36.70;;;;;;5074591;28;19924;-55
2021/12/08 07:56:33;;;;;;;;;;;20.40;36.70;;;;;;5094718;28;20435;-53
2021/12/08 07:59:02;;;;;;;;;;;20.40;37.30;;;;;;5094089;28;19928;-54
2021/12/08 08:01:30;;;;;;;;;;;20.40;36.60;;;;;;5097765;28;19932;-54
2021/12/08 08:03:57;;;;;;;;;;;20.40;36.60;;;;;;5098562;28;19935;-57
2021/12/08 08:06:25;;;;;;;;;;;20.40;36.60;;;;;;5095279;28;19930;-52
2021/12/08 08:08:54;;;;;;;;;;;20.40;36.50;;;;;;5090487;28;20276;-54
2021/12/08 08:11:22;;;;;;;;;;;20.40;36.50;;;;;;5069311;28;20022;-54
2021/12/08 08:13:49;;;;;;;;;;;20.40;36.50;;;;;;5092154;28;20064;-54
2021/12/08 08:16:16;;;;;;;;;;;20.40;33.00;;;;;;5094729;28;19924;-57
2021/12/08 08:18:45;;;;;;;;;;;20.20;30.30;;;;;;5072785;28;19927;-53
2021/12/08 08:21:17;;;;;;;;;;;20.10;31.00;;;;;;5091423;28;19924;-55
2021/12/08 08:23:44;;;;;;;;;;;20.00;32.10;;;;;;5090090;28;19959;-52
2021/12/08 08:26:12;;;;;;;;;;;19.90;32.90;;;;;;5096460;28;19997;-53
2021/12/08 08:28:40;;;;;;;;;;;19.80;33.30;;;;;;5092797;28;19924;-52
2021/12/08 08:31:08;;;;;;;;;;;19.80;33.80;;;;;;5078760;28;19924;-55
2021/12/08 08:33:35;;;;;;;;;;;19.80;34.00;;;;;;5079602;28;20404;-58
2021/12/08 08:36:04;;;;;;;;;;;19.80;34.30;;;;;;5093287;28;19928;-58
2021/12/08 08:38:31;;;;;;;;;;;19.90;34.60;;;;;;5099432;28;20436;-55
2021/12/08 08:40:59;;;;;;;;;;;19.90;34.70;;;;;;5074296;28;19924;-54
2021/12/08 08:43:28;;;;;;;;;;;19.90;34.90;;;;;;5092213;28;19931;-55
2021/12/08 08:45:56;;;;;;;;;;;19.90;35.00;;;;;;5091254;28;19928;-55
2021/12/08 08:48:25;;;;;;;;;;;20.00;35.10;;;;;;5092422;28;19977;-55
2021/12/08 08:50:52;;;;;;;;;;;20.00;35.30;;;;;;5095264;28;19924;-53
2021/12/08 08:53:19;;;;;;;;;;;20.00;35.30;;;;;;5090364;28;20014;-52
2021/12/08 08:55:50;;;;;;;;;;;20.00;35.40;;;;;;5090991;28;19959;-51
2021/12/08 08:58:17;;;;;;;;;;;20.00;35.40;;;;;;5102261;28;20369;-53
2021/12/08 09:00:47;;;;;;;;;;;20.00;35.40;;;;;;5073541;28;19930;-51
2021/12/08 09:03:19;;;;;;;;;;;20.00;35.50;;;;;;5089292;28;19928;-55
2021/12/08 09:05:51;;;;;;;;;;;20.10;35.60;;;;;;5093689;28;19953;-55
2021/12/08 09:08:18;;;;;;;;;;;20.10;35.70;;;;;;5093099;28;19931;-51
2021/12/08 09:10:46;;;;;;;;;;;20.10;35.70;;;;;;5094983;28;20329;-54
2021/12/08 09:13:14;;;;;;;;;;;20.10;35.70;;;;;;5096955;28;20335;-61
2021/12/08 09:15:43;;;;;;;;;;;20.10;35.70;;;;;;5095453;28;20024;-55
2021/12/08 09:18:17;;;;;;;;;;;20.10;35.80;;;;;;5095905;28;19924;-49
2021/12/08 09:20:53;;;;;;;;;;;20.10;35.80;;;;;;5098469;28;20293;-53
2021/12/08 09:23:23;;;;;;;;;;;20.20;35.90;;;;;;5102155;28;19924;-53
2021/12/08 09:25:51;;;;;;;;;;;20.20;35.90;;;;;;5090105;28;19924;-53
2021/12/08 09:28:18;;;;;;;;;;;20.20;35.90;;;;;;5077014;28;20064;-54
2021/12/08 09:30:46;;;;;;;;;;;20.20;35.90;;;;;;5092612;28;20416;-52
2021/12/08 09:33:15;;;;;;;;;;;20.20;36.00;;;;;;5088992;28;19924;-57
2021/12/08 09:35:44;;;;;;;;;;;20.20;36.00;;;;;;5072226;28;19940;-54
2021/12/08 09:38:11;;;;;;;;;;;20.20;36.00;;;;;;5090634;28;20388;-56
2021/12/08 09:40:39;;;;;;;;;;;20.20;36.00;;;;;;5078043;28;20014;-53
2021/12/08 09:43:06;;;;;;;;;;;20.30;36.10;;;;;;5093192;28;19960;-55
2021/12/08 09:45:34;;;;;;;;;;;20.30;36.10;;;;;;5077970;28;19928;-51
2021/12/08 09:48:02;;;;;;;;;;;20.30;36.10;;;;;;5104725;28;20428;-53
2021/12/08 09:50:30;;;;;;;;;;;20.30;36.10;;;;;;5071726;28;19931;-53
2021/12/08 09:52:57;;;;;;;;;;;20.30;36.10;;;;;;5058112;28;20327;-57
2021/12/08 09:55:23;;;;;;;;;;;20.30;36.10;;;;;;5096275;28;19932;-60
2021/12/08 09:57:50;;;;;;;;;;;20.30;36.20;;;;;;5089673;28;19959;-54
2021/12/08 10:00:20;;;;;;;;;;;20.30;36.20;;;;;;5079779;28;19946;-52
2021/12/08 10:02:47;;;;;;;;;;;20.30;36.20;;;;;;5088518;28;19928;-48
2021/12/08 10:05:14;;;;;;;;;;;20.30;36.20;;;;;;5080614;28;19924;-53
2021/12/08 10:07:43;;;;;;;;;;;20.30;36.20;;;;;;5087886;28;20035;-49
2021/12/08 10:10:11;;;;;;;;;;;20.30;36.20;;;;;;5090284;28;19936;-54
2021/12/08 10:12:37;;;;;;;;;;;20.30;36.20;;;;;;5091709;28;19934;-52
2021/12/08 10:15:05;;;;;;;;;;;20.40;36.30;;;;;;5090265;28;20030;-56
2021/12/08 10:17:33;;;;;;;;;;;20.40;36.30;;;;;;5072711;28;19950;-52
2021/12/08 10:20:11;;;;;;;;;;;20.40;36.30;;;;;;5060977;28;20288;-58
2021/12/08 10:22:37;;;;;;;;;;;20.40;36.30;;;;;;5075422;28;19924;-59
2021/12/08 10:25:07;;;;;;;;;;;20.40;36.40;;;;;;5071935;28;19924;-51
2021/12/08 10:27:49;;;;;;;;;;;20.40;36.40;;;;;;5092858;28;19978;-52
2021/12/08 10:30:19;;;;;;;;;;;20.40;36.40;;;;;;5070018;28;19930;-57
2021/12/08 10:32:46;;;;;;;;;;;20.40;36.40;;;;;;5093255;28;19977;-55
2021/12/08 10:35:28;;;;;;;;;;;20.50;36.50;;;;;;5073032;28;20331;-55
2021/12/08 10:37:59;;;;;;;;;;;20.50;36.40;;;;;;5071002;28;19924;-56
2021/12/08 10:40:27;;;;;;;;;;;20.50;36.40;;;;;;5089461;28;19932;-49
2021/12/08 10:42:54;;;;;;;;;;;20.50;36.50;;;;;;5094713;28;19924;-54
2021/12/08 10:45:23;;;;;;;;;;;20.50;36.50;;;;;;5079659;28;19995;-55
2021/12/08 10:47:53;;;;;;;;;;;20.60;36.60;;;;;;5096469;28;20395;-51
2021/12/08 10:55:54;;;;;;;;;;;20.60;36.60;;;;;;5094025;28;19943;-55
2021/12/08 10:58:21;;;;;;;;;;;20.60;36.60;;;;;;5075648;28;19928;-58
2021/12/08 11:00:48;;;;;;;;;;;20.70;36.70;;;;;;5085027;28;19963;-60
2021/12/08 11:03:16;;;;;;;;;;;20.70;36.70;;;;;;5096833;28;19938;-55
2021/12/08 11:05:50;;;;;;;;;;;20.70;36.70;;;;;;5092192;28;19939;-55
2021/12/08 11:08:19;;;;;;;;;;;20.70;36.70;;;;;;5069185;28;20409;-55
2021/12/08 11:10:47;;;;;;;;;;;20.70;36.70;;;;;;5074338;28;20063;-57
2021/12/08 11:13:15;;;;;;;;;;;20.70;36.70;;;;;;5071807;28;19982;-55
2021/12/08 11:15:42;;;;;;;;;;;20.70;36.70;;;;;;5073003;28;19986;-59
2021/12/08 11:18:10;;;;;;;;;;;20.70;36.70;;;;;;5095050;28;20011;-53
2021/12/08 11:20:42;;;;;;;;;;;20.70;36.70;;;;;;5101953;28;19936;-58
2021/12/08 11:23:10;;;;;;;;;;;20.70;36.70;;;;;;5091779;28;20358;-55
2021/12/08 11:25:42;;;;;;;;;;;20.70;36.70;;;;;;5098847;28;20002;-55
2021/12/08 11:28:20;;;;;;;;;;;20.70;36.70;;;;;;5090232;28;19935;-58
2021/12/08 11:30:47;;;;;;;;;;;20.70;36.70;;;;;;5095320;28;19930;-53
2021/12/08 11:33:16;;;;;;;;;;;20.70;36.70;;;;;;5094654;28;19932;-55
2021/12/08 11:35:43;;;;;;;;;;;20.70;36.70;;;;;;5085246;28;19935;-57
2021/12/08 11:38:10;;;;;;;;;;;20.70;36.70;;;;;;5093460;28;20342;-56
2021/12/08 11:40:36;;;;;;;;;;;20.70;36.70;;;;;;5104660;28;20019;-59
2021/12/08 11:43:03;;;;;;;;;;;20.80;36.80;;;;;;5094248;28;20064;-51
2021/12/08 11:45:39;;;;;;;;;;;20.80;36.80;;;;;;5093426;28;20054;-53
2021/12/08 11:48:20;;;;;;;;;;;20.80;37.40;;;;;;5096523;28;20391;-53
2021/12/08 11:50:47;;;;;;;;;;;20.80;36.80;;;;;;5096867;28;19940;-58
2021/12/08 11:53:20;;;;;;;;;;;20.80;36.80;;;;;;5094976;28;20014;-54
2021/12/08 11:55:46;;;;;;;;;;;20.80;36.90;;;;;;5114661;27;19947;-57
2021/12/08 11:58:14;;;;;;;;;;;20.80;36.90;;;;;;5091669;28;19959;-53
2021/12/08 12:00:48;;;;;;;;;;;20.80;36.80;;;;;;5091033;28;20004;-56
2021/12/08 12:03:15;;;;;;;;;;;20.80;36.90;;;;;;5078982;28;19948;-55
2021/12/08 12:05:43;;;;;;;;;;;20.70;36.70;;;;;;5076725;28;19963;-57
2021/12/08 12:08:10;;;;;;;;;;;20.70;36.70;;;;;;5096059;28;20368;-56
2021/12/08 12:10:37;;;;;;;;;;;20.80;36.80;;;;;;5091200;28;20325;-57
2021/12/08 12:13:08;;;;;;;;;;;20.70;36.80;;;;;;5073780;28;19928;-57
2021/12/08 12:15:35;;;;;;;;;;;20.70;36.90;;;;;;5082645;28;19931;-57
2021/12/08 12:18:03;;;;;;;;;;;20.80;36.90;;;;;;5074370;28;19931;-60
2021/12/08 12:20:30;;;;;;;;;;;20.80;37.00;;;;;;5091570;28;19931;-59
2021/12/08 12:23:01;;;;;;;;;;;20.80;37.00;;;;;;5094834;28;19928;-58
2021/12/08 12:25:31;;;;;;;;;;;20.80;37.10;;;;;;5101340;28;19943;-55
2021/12/08 12:28:10;;;;;;;;;;;20.80;37.10;;;;;;5093891;28;20015;-56
2021/12/08 12:30:39;;;;;;;;;;;20.80;37.10;;;;;;5091652;28;19932;-57
2021/12/08 12:33:12;;;;;;;;;;;20.80;37.20;;;;;;5085748;28;19924;-58
2021/12/08 12:35:39;;;;;;;;;;;20.80;37.20;;;;;;5090323;28;19977;-59
2021/12/08 12:38:06;;;;;;;;;;;20.80;37.20;;;;;;5073611;28;19920;-56
2021/12/08 12:40:33;;;;;;;;;;;20.80;37.30;;;;;;5098518;28;19982;-51
2021/12/08 12:43:00;;;;;;;;;;;20.80;37.30;;;;;;5098001;28;19927;-54
2021/12/08 12:45:34;;;;;;;;;;;20.80;37.40;;;;;;5081573;28;19932;-57
2021/12/08 12:48:08;;;;;;;;;;;20.80;37.40;;;;;;5099061;28;19932;-55
2021/12/08 12:50:51;;;;;;;;;;;20.80;37.40;;;;;;5091667;28;19938;-53
2021/12/08 12:53:29;;;;;;;;;;;20.80;37.50;;;;;;5090151;28;19927;-55
2021/12/08 12:55:56;;;;;;;;;;;20.80;37.50;;;;;;5090277;28;19930;-55
2021/12/08 12:58:23;;;;;;;;;;;20.80;37.50;;;;;;5083451;28;19923;-56
2021/12/08 13:00:52;;;;;;;;;;;20.80;37.50;;;;;;5102081;28;19925;-55
2021/12/08 13:03:48;;;;;;;;;;;20.80;37.50;;;;;;5091354;28;20019;-59
2021/12/08 13:06:15;;;;;;;;;;;20.80;37.60;;;;;;5053325;28;20357;-52
2021/12/08 13:08:45;;;;;;;;;;;20.80;37.60;;;;;;5063669;28;20105;-55
2021/12/08 13:11:34;;;;;;;;;;;20.80;37.70;;;;;;5093373;28;20344;-55
2021/12/08 13:14:03;;;;;;;;;;;20.80;37.60;;;;;;5093136;28;19940;-51
2021/12/08 13:16:31;;;;;;;;;;;20.80;37.70;;;;;;5089824;28;19924;-58
2021/12/08 13:18:59;;;;;;;;;;;20.80;37.70;;;;;;5092007;28;19928;-56
2021/12/08 13:21:39;;;;;;;;;;;20.80;37.70;;;;;;5108713;27;20296;-51
2021/12/08 13:24:07;;;;;;;;;;;20.80;37.80;;;;;;5080139;28;19932;-55
2021/12/08 13:26:46;;;;;;;;;;;20.80;37.80;;;;;;5074919;28;20011;-53
2021/12/08 13:29:19;;;;;;;;;;;20.80;37.80;;;;;;5089433;28;19935;-52
2021/12/08 13:31:58;;;;;;;;;;;20.80;37.80;;;;;;5093697;28;19938;-56
2021/12/08 13:34:25;;;;;;;;;;;20.80;37.90;;;;;;5094771;28;19939;-57
2021/12/08 13:36:52;;;;;;;;;;;20.80;37.90;;;;;;5100095;28;19954;-54
2021/12/08 13:39:25;;;;;;;;;;;20.80;37.90;;;;;;5094612;28;19928;-56
2021/12/08 13:41:57;;;;;;;;;;;20.80;37.90;;;;;;5086238;28;19928;-55
2021/12/08 13:44:24;;;;;;;;;;;20.80;38.00;;;;;;5093709;28;19950;-63
2021/12/08 13:46:51;;;;;;;;;;;20.80;37.90;;;;;;5077799;28;19973;-56
2021/12/08 13:49:19;;;;;;;;;;;20.80;38.00;;;;;;5093003;28;19938;-54
2021/12/08 13:51:59;;;;;;;;;;;20.80;38.00;;;;;;5095858;28;19928;-55
2021/12/08 13:54:28;;;;;;;;;;;20.80;38.00;;;;;;5089732;28;20036;-57
2021/12/08 13:56:55;;;;;;;;;;;20.80;38.00;;;;;;5079981;28;19931;-49
2021/12/08 13:59:40;;;;;;;;;;;20.80;38.10;;;;;;5071514;28;19973;-52
2021/12/08 14:02:28;;;;;;;;;;;20.80;38.00;;;;;;5093498;28;19935;-56
2021/12/08 14:05:05;;;;;;;;;;;20.80;38.10;;;;;;5071721;28;19931;-55
2021/12/08 14:07:32;;;;;;;;;;;20.90;38.20;;;;;;5093239;28;19924;-56
2021/12/08 14:10:01;;;;;;;;;;;20.80;38.10;;;;;;5092708;28;19932;-53
2021/12/08 14:12:47;;;;;;;;;;;20.80;38.10;;;;;;5089095;28;20416;-55
2021/12/08 14:15:15;;;;;;;;;;;20.80;38.10;;;;;;5084771;28;20404;-55
2021/12/08 14:17:42;;;;;;;;;;;20.80;38.10;;;;;;5072429;28;19954;-52
2021/12/08 14:20:24;;;;;;;;;;;20.80;38.10;;;;;;5071739;28;20228;-59
2021/12/08 14:22:51;;;;;;;;;;;20.80;38.10;;;;;;5076393;28;19935;-63
2021/12/08 14:25:19;;;;;;;;;;;20.80;38.20;;;;;;5071312;28;19973;-57
2021/12/08 14:27:46;;;;;;;;;;;20.90;38.30;;;;;;5088653;28;20011;-60
2021/12/08 14:30:13;;;;;;;;;;;20.90;38.30;;;;;;5089087;28;19924;-57
2021/12/08 14:32:40;;;;;;;;;;;20.90;38.30;;;;;;5071339;28;19935;-52
2021/12/08 14:35:10;;;;;;;;;;;20.90;38.30;;;;;;5074265;28;20017;-54
2021/12/08 14:37:37;;;;;;;;;;;20.90;38.30;;;;;;5085421;28;19956;-57
2021/12/08 14:40:04;;;;;;;;;;;20.90;38.30;;;;;;5070943;28;19931;-58
2021/12/08 14:42:34;;;;;;;;;;;20.90;38.30;;;;;;5089829;28;20365;-53
2021/12/08 14:45:06;;;;;;;;;;;20.90;38.30;;;;;;5073347;28;19924;-52
2021/12/08 14:47:35;;;;;;;;;;;20.90;38.30;;;;;;5075179;28;20014;-57
2021/12/08 14:50:03;;;;;;;;;;;20.90;38.30;;;;;;5090825;28;20357;-59
2021/12/08 14:52:30;;;;;;;;;;;20.90;38.30;;;;;;5091748;28;20023;-60
2021/12/08 14:54:57;;;;;;;;;;;20.90;38.30;;;;;;5081835;28;19928;-55
2021/12/08 14:57:25;;;;;;;;;;;20.90;38.30;;;;;;5075654;28;20447;-52
2021/12/08 14:59:54;;;;;;;;;;;20.90;38.30;;;;;;5092051;28;20002;-59